Terminal Aerodrome Forecast
Issued by NWS

Home | Current Version | Previous Version | Text Only | Print | Product List | Glossary Off
Versions: 1 2 3 4 5 6 7 8 9 10 11 12 13 14 15 16 17 18 19 20 21 22 23 24 25

453
FTUS43 KLOT 150857 AAA
TAFORD
TAF AMD
KORD 150857Z 1509/1612 24005KT P6SM BKN025 OVC100
     FM151500 27014G22KT P6SM BKN025 OVC040
     FM152300 24008KT P6SM SCT025 OVC040=

USA.gov is the U.S. government's official web portal to all federal, state and local government web resources and services.